This is the latest recevied weather packets stored in our database for station/object KE5KUL-13. If no packets are shown the sender has not sent any weather packets the latest 1 day(s).
| Time | Temp. | Humidity | Pressure | Rain* | Wind** | Luminosity | Snow |
|---|---|---|---|---|---|---|---|
| 1778115317 | 14.44° C | 49% | 1017.1 hPa | 0 mm | - | - | - |
| 1778114717 | 14.44° C | 49% | 1016.9 hPa | 0 mm | - | - | - |
| 1778114119 | 14.44° C | 48% | 1017 hPa | 0 mm | - | - | - |
| 1778111719 | 15.56° C | 46% | 1016.5 hPa | 0 mm | - | - | - |
| 1778106319 | 17.22° C | 44% | 1017 hPa | 0 mm | - | - | - |
| 1778105119 | 17.22° C | 44% | 1017.5 hPa | 0 mm | - | - | - |
| 1778101519 | 17.22° C | 45% | 1017.6 hPa | 0 mm | - | - | - |
| 1778100919 | 16.67° C | 44% | 1017.6 hPa | 0 mm | - | - | - |
| 1778100319 | 17.78° C | 42% | 1017.9 hPa | 0 mm | - | - | - |
| 1778098519 | 18.33° C | 42% | 1017.8 hPa | 0 mm | - | - | - |
| 1778097919 | 17.78° C | 43% | 1017.7 hPa | 0 mm | - | - | - |
| 1778095519 | 16.11° C | 47% | 1017.7 hPa | 0 mm | - | - | - |
| 1778093119 | 17.22° C | 44% | 1018.3 hPa | 0 mm | - | - | - |
| 1778078418 | 8.33° C | 66% | 1016.6 hPa | 0 mm | - | - | - |
| 1778077818 | 7.78° C | 66% | 1016.5 hPa | 0 mm | - | - | - |
| 1778076618 | 7.78° C | 67% | 1016.2 hPa | 0 mm | - | - | - |
| 1778076018 | 7.22° C | 67% | 1016.2 hPa | 0 mm | - | - | - |
| 1778074818 | 7.22° C | 68% | 1016.5 hPa | 0 mm | - | - | - |
| 1778074218 | 6.67° C | 69% | 1016.5 hPa | 0 mm | - | - | - |
| 1778072418 | 6.11° C | 70% | 1017.1 hPa | 0 mm | - | - | - |
| 1778071818 | 6.11° C | 70% | 1017 hPa | 0 mm | - | - | - |
| 1778071218 | 6.11° C | 72% | 1016.9 hPa | 0 mm | - | - | - |
| 1778070018 | 5.56° C | 72% | 1017 hPa | 0 mm | - | - | - |
| 1778069418 | 5.56° C | 72% | 1016.5 hPa | 0 mm | - | - | - |
| 1778068218 | 5.56° C | 73% | 1016.1 hPa | 0 mm | - | - | - |
* Rain latest hour (hover to see other rain measurements)
** Current wind speed in m/s (hover to see current wind gust speed)